createdAt,value
2018-12-13T00:02:01.360Z,95232.78
2018-12-13T00:04:27.743Z,95241.31
2018-12-13T00:06:54.077Z,95243.97
2018-12-13T00:09:20.509Z,95243.51
2018-12-13T00:11:46.873Z,95237.30
2018-12-13T00:14:13.213Z,95244.55
2018-12-13T00:16:39.605Z,95239.86
2018-12-13T00:19:05.928Z,95233.19
2018-12-13T00:21:32.270Z,95237.13
2018-12-13T00:23:58.585Z,95238.78
2018-12-13T00:26:24.987Z,95232.66
2018-12-13T00:28:51.379Z,95238.98
2018-12-13T00:31:17.734Z,95241.09
2018-12-13T00:33:44.069Z,95239.28
2018-12-13T00:36:10.410Z,95243.38
2018-12-13T00:38:36.730Z,95244.05
2018-12-13T00:41:03.109Z,95242.59
2018-12-13T00:43:29.500Z,95248.92
2018-12-13T00:45:55.826Z,95253.31
2018-12-13T00:48:22.142Z,95250.66
2018-12-13T00:50:48.460Z,95252.89
2018-12-13T00:53:14.804Z,95252.77
2018-12-13T00:55:41.140Z,95257.38
2018-12-13T00:58:07.495Z,95257.83
2018-12-13T01:00:33.861Z,95259.11
2018-12-13T01:03:00.202Z,95257.20
2018-12-13T01:05:26.549Z,95255.97
2018-12-13T01:07:52.891Z,95256.42
2018-12-13T01:10:19.242Z,95255.95
2018-12-13T01:12:45.582Z,95250.50
2018-12-13T01:15:11.935Z,95254.17
2018-12-13T01:17:38.267Z,95250.07
2018-12-13T01:20:04.592Z,95253.47
2018-12-13T01:22:30.923Z,95252.92
2018-12-13T01:24:57.292Z,95249.44
2018-12-13T01:27:23.646Z,95253.66
2018-12-13T01:29:49.989Z,95253.48
2018-12-13T01:32:16.374Z,95261.84
2018-12-13T01:34:42.701Z,95260.08
2018-12-13T01:37:09.030Z,95268.52
2018-12-13T01:39:35.474Z,95258.17
2018-12-13T01:42:01.815Z,95263.84
2018-12-13T01:44:28.146Z,95260.42
2018-12-13T01:46:54.521Z,95264.21
2018-12-13T01:49:20.845Z,95259.92
2018-12-13T01:51:47.244Z,95259.98
2018-12-13T01:54:13.574Z,95253.42
2018-12-13T01:56:39.906Z,95251.03
2018-12-13T01:59:06.255Z,95246.90
2018-12-13T02:01:32.582Z,95248.89
2018-12-13T02:03:58.956Z,95249.86
2018-12-13T02:06:25.289Z,95249.66
2018-12-13T02:08:51.672Z,95253.97
2018-12-13T02:11:18.012Z,95258.82
2018-12-13T02:13:44.416Z,95258.11
2018-12-13T02:16:10.784Z,95260.65
2018-12-13T02:18:37.071Z,95258.91
2018-12-13T02:21:03.402Z,95259.37
2018-12-13T02:23:29.749Z,95257.27
2018-12-13T02:25:56.082Z,95256.31
2018-12-13T02:28:22.420Z,95250.80
2018-12-13T02:30:48.785Z,95249.89
2018-12-13T02:33:15.116Z,95245.92
2018-12-13T02:35:41.495Z,95239.66
2018-12-13T02:38:07.829Z,95238.88
2018-12-13T02:40:34.236Z,95239.20
2018-12-13T02:43:00.585Z,95243.22
2018-12-13T02:45:27.030Z,95240.98
2018-12-13T02:47:53.406Z,95241.61
2018-12-13T02:50:19.731Z,95239.78
2018-12-13T02:52:46.058Z,95236.88
2018-12-13T02:55:12.390Z,95232.89
2018-12-13T02:57:38.793Z,95227.75
2018-12-13T03:00:05.126Z,95225.17
2018-12-13T03:02:31.492Z,95233.14
2018-12-13T03:04:57.858Z,95240.30
2018-12-13T03:07:24.195Z,95250.13
2018-12-13T03:09:50.515Z,95249.38
2018-12-13T03:12:16.849Z,95253.06
2018-12-13T03:14:43.217Z,95249.92
2018-12-13T03:17:09.514Z,95241.29
2018-12-13T03:19:35.843Z,95241.45
2018-12-13T03:22:02.172Z,95244.27
2018-12-13T03:24:28.504Z,95239.13
2018-12-13T03:26:54.840Z,95258.41
2018-12-13T03:29:21.182Z,95254.64
2018-12-13T03:31:47.536Z,95253.91
2018-12-13T03:34:13.911Z,95252.99
2018-12-13T03:36:40.275Z,95254.41
2018-12-13T03:39:06.570Z,95250.00
2018-12-13T03:41:32.903Z,95250.30
2018-12-13T03:43:59.237Z,95248.43
2018-12-13T03:46:25.565Z,95248.59
2018-12-13T03:48:51.927Z,95249.78
2018-12-13T03:51:18.218Z,95245.25
2018-12-13T03:53:44.558Z,95249.66
2018-12-13T03:56:10.893Z,95248.16
2018-12-13T03:58:37.221Z,95241.85
2018-12-13T04:01:03.571Z,95241.80
2018-12-13T04:03:29.903Z,95234.20
2018-12-13T04:05:56.272Z,95236.03
2018-12-13T04:08:22.622Z,95236.42
2018-12-13T04:10:48.962Z,95231.20
2018-12-13T04:13:15.321Z,95227.58
2018-12-13T04:15:41.673Z,95224.09
2018-12-13T04:18:08.001Z,95225.72
2018-12-13T04:20:34.334Z,95226.09
2018-12-13T04:23:00.666Z,95230.62
2018-12-13T04:25:26.996Z,95234.64
2018-12-13T04:27:53.334Z,95238.81
2018-12-13T04:30:19.677Z,95246.81
2018-12-13T04:32:46.012Z,95244.42
2018-12-13T04:35:12.345Z,95241.02
2018-12-13T04:37:38.694Z,95242.95
2018-12-13T04:40:05.058Z,95234.77
2018-12-13T04:42:31.381Z,95236.94
2018-12-13T04:44:57.708Z,95238.04
2018-12-13T04:47:24.105Z,95244.74
2018-12-13T04:49:50.435Z,95257.95
2018-12-13T04:52:16.758Z,95255.06
2018-12-13T04:54:43.112Z,95255.98
2018-12-13T04:57:09.462Z,95255.06
2018-12-13T04:59:35.876Z,95258.60
2018-12-13T05:02:02.203Z,95266.56
2018-12-13T05:04:29.764Z,95263.98
2018-12-13T05:06:54.878Z,95261.29
2018-12-13T05:09:21.199Z,95263.41
2018-12-13T05:11:47.599Z,95265.05
2018-12-13T05:14:13.910Z,95259.78
2018-12-13T05:16:40.259Z,95263.64
2018-12-13T05:19:06.697Z,95268.33
2018-12-13T05:21:33.077Z,95263.56
2018-12-13T05:23:59.471Z,95267.42
2018-12-13T05:26:25.801Z,95273.86
2018-12-13T05:28:52.259Z,95274.59
2018-12-13T05:31:18.594Z,95280.53
2018-12-13T05:33:44.962Z,95273.31
2018-12-13T05:36:11.456Z,95276.95
2018-12-13T05:38:37.805Z,95276.95
2018-12-13T05:41:04.209Z,95278.47
2018-12-13T05:43:33.604Z,95280.81
2018-12-13T05:45:59.942Z,95282.47
2018-12-13T05:48:26.294Z,95281.74
2018-12-13T05:50:52.686Z,95285.16
2018-12-13T05:53:19.015Z,95285.16
2018-12-13T05:55:45.365Z,95285.30
2018-12-13T05:58:11.708Z,95292.17
2018-12-13T06:00:38.107Z,95284.44
2018-12-13T06:03:04.500Z,95287.50
2018-12-13T06:05:30.866Z,95276.17
2018-12-13T06:07:57.237Z,95283.09
2018-12-13T06:10:23.638Z,95287.33
2018-12-13T06:12:49.967Z,95282.72
2018-12-13T06:15:16.316Z,95284.84
2018-12-13T06:17:42.647Z,95286.86
2018-12-13T06:20:09.026Z,95284.98
2018-12-13T06:22:35.420Z,95286.81
2018-12-13T06:25:01.753Z,95289.06
2018-12-13T06:27:28.080Z,95288.80
2018-12-13T06:29:58.882Z,95285.81
2018-12-13T06:32:20.814Z,95282.84
2018-12-13T06:34:47.146Z,95285.43
2018-12-13T06:37:13.609Z,95282.52
2018-12-13T06:39:39.988Z,95286.72
2018-12-13T06:42:07.461Z,95280.17
2018-12-13T06:44:33.929Z,95288.27
2018-12-13T06:47:00.295Z,95283.34
2018-12-13T06:49:26.659Z,95280.09
2018-12-13T06:51:52.988Z,95281.36
2018-12-13T06:54:21.495Z,95277.16
2018-12-13T06:56:47.820Z,95277.64
2018-12-13T06:59:14.150Z,95278.80
2018-12-13T07:01:40.528Z,95276.67
2018-12-13T07:04:06.935Z,95276.79
2018-12-13T07:06:33.355Z,95278.44
2018-12-13T07:08:59.694Z,95275.16
2018-12-13T07:11:26.021Z,95273.27
2018-12-13T07:13:52.559Z,95273.27
2018-12-13T07:16:19.076Z,95270.50
2018-12-13T07:18:45.479Z,95267.78
2018-12-13T07:21:11.866Z,95272.23
2018-12-13T07:23:38.257Z,95275.41
2018-12-13T07:26:04.595Z,95275.63
2018-12-13T07:28:30.949Z,95273.33
2018-12-13T07:30:57.747Z,95282.31
2018-12-13T07:33:24.078Z,95277.99
2018-12-13T07:35:50.549Z,95279.49
2018-12-13T07:38:17.291Z,95277.56
2018-12-13T07:40:45.657Z,95279.94
2018-12-13T07:43:12.089Z,95284.06
2018-12-13T07:45:38.523Z,95282.53
2018-12-13T07:48:04.916Z,95281.02
2018-12-13T07:50:31.313Z,95276.22
2018-12-13T07:52:57.816Z,95271.20
2018-12-13T07:55:24.584Z,95273.86
2018-12-13T07:57:53.307Z,95267.14
2018-12-13T08:00:19.640Z,95264.94
2018-12-13T08:02:46.034Z,95270.86
2018-12-13T08:05:12.442Z,95276.37
2018-12-13T08:07:38.979Z,95274.41
2018-12-13T08:10:05.315Z,95271.58
2018-12-13T08:12:31.715Z,95271.42
2018-12-13T08:14:58.071Z,95269.66
2018-12-13T08:17:24.425Z,95270.28
2018-12-13T08:19:50.864Z,95270.78
2018-12-13T08:22:17.260Z,95268.20
2018-12-13T08:24:43.651Z,95271.78
2018-12-13T08:27:10.000Z,95265.70
2018-12-13T08:29:36.419Z,95267.56
2018-12-13T08:32:02.768Z,95262.20
2018-12-13T08:34:29.140Z,95264.16
2018-12-13T08:36:55.533Z,95265.94
2018-12-13T08:39:21.867Z,95265.72
2018-12-13T08:41:48.227Z,95260.66
2018-12-13T08:44:15.644Z,95265.45
2018-12-13T08:46:42.588Z,95266.03
2018-12-13T08:49:09.055Z,95261.33
2018-12-13T08:51:35.411Z,95264.03
2018-12-13T08:54:01.779Z,95257.41
2018-12-13T08:56:28.138Z,95259.61
2018-12-13T08:58:54.545Z,95258.44
2018-12-13T09:01:20.954Z,95254.43
2018-12-13T09:03:47.412Z,95248.99
2018-12-13T09:06:13.773Z,95247.86
2018-12-13T09:08:40.132Z,95250.34
2018-12-13T09:11:06.488Z,95244.46
2018-12-13T09:13:32.838Z,95242.67
2018-12-13T09:15:59.188Z,95240.42
2018-12-13T09:18:25.531Z,95234.81
2018-12-13T09:20:51.968Z,95236.35
2018-12-13T09:23:18.357Z,95233.44
2018-12-13T09:25:44.757Z,95235.66
2018-12-13T09:28:11.103Z,95231.27
2018-12-13T09:30:37.476Z,95233.88
2018-12-13T09:33:03.873Z,95223.16
2018-12-13T09:35:30.201Z,95222.12
2018-12-13T09:37:56.630Z,95216.19
2018-12-13T09:40:22.957Z,95211.57
2018-12-13T09:42:49.295Z,95208.33
2018-12-13T09:45:15.643Z,95205.83
2018-12-13T09:47:42.018Z,95211.05
2018-12-13T09:50:08.590Z,95202.23
2018-12-13T09:52:34.981Z,95194.98
2018-12-13T09:55:05.669Z,95189.89
2018-12-13T09:57:27.756Z,95188.36
2018-12-13T09:59:54.098Z,95183.44
2018-12-13T10:02:20.479Z,95183.98
2018-12-13T10:04:46.804Z,95185.94
2018-12-13T10:07:13.202Z,95184.63
2018-12-13T10:09:39.541Z,95183.72
2018-12-13T10:12:05.940Z,95185.17
2018-12-13T10:14:32.285Z,95183.94
2018-12-13T10:16:58.628Z,95183.19
2018-12-13T10:19:24.966Z,95179.10
2018-12-13T10:21:51.313Z,95177.84
2018-12-13T10:24:17.651Z,95169.55
2018-12-13T10:26:44.044Z,95168.12
2018-12-13T10:29:10.375Z,95168.80
2018-12-13T10:31:36.806Z,95166.39
2018-12-13T10:34:03.137Z,95155.38
2018-12-13T10:36:29.468Z,95151.02
2018-12-13T10:38:55.820Z,95143.73
2018-12-13T10:41:22.314Z,95139.53
2018-12-13T10:43:48.676Z,95143.27
2018-12-13T10:46:16.200Z,95139.14
2018-12-13T10:48:42.603Z,95134.12
2018-12-13T10:51:09.045Z,95127.85
2018-12-13T10:53:35.451Z,95121.15
2018-12-13T10:56:01.755Z,95121.68
2018-12-13T10:58:28.169Z,95116.73
2018-12-13T11:00:54.548Z,95113.00
2018-12-13T11:03:20.880Z,95115.80
2018-12-13T11:05:47.470Z,95110.86
2018-12-13T11:08:14.866Z,95105.98
2018-12-13T11:10:41.229Z,95100.92
2018-12-13T11:13:07.576Z,95100.34
2018-12-13T11:15:33.970Z,95102.53
2018-12-13T11:18:00.452Z,95104.19
2018-12-13T11:20:26.962Z,95098.13
2018-12-13T11:22:53.403Z,95088.38
2018-12-13T11:25:22.253Z,95094.25
2018-12-13T11:27:50.772Z,95089.62
2018-12-13T11:30:17.180Z,95090.20
2018-12-13T11:32:43.573Z,95082.85
2018-12-13T11:35:10.155Z,95077.55
2018-12-13T11:37:36.403Z,95078.98
2018-12-13T11:40:02.791Z,95075.36
2018-12-13T11:42:29.135Z,95070.66
2018-12-13T11:44:55.566Z,95075.83
2018-12-13T11:47:22.452Z,95076.16
2018-12-13T11:49:48.452Z,95071.88
2018-12-13T11:52:14.797Z,95076.44
2018-12-13T11:54:41.119Z,95071.95
2018-12-13T11:57:07.469Z,95069.73
2018-12-13T11:59:33.814Z,95072.28
2018-12-13T12:02:00.288Z,95068.16
2018-12-13T12:04:26.660Z,95063.74
2018-12-13T12:06:53.052Z,95069.87
2018-12-13T12:09:19.407Z,95069.48
2018-12-13T12:11:46.134Z,95075.83
2018-12-13T12:14:12.558Z,95073.75
2018-12-13T12:16:38.884Z,95076.80
2018-12-13T12:19:05.249Z,95071.95
2018-12-13T12:21:31.661Z,95068.02
2018-12-13T12:23:57.992Z,95067.26
2018-12-13T12:26:24.407Z,95055.68
2018-12-13T12:28:50.782Z,95058.94
2018-12-13T12:31:17.114Z,95058.08
2018-12-13T12:33:43.511Z,95057.29
2018-12-13T12:36:09.879Z,95056.15
2018-12-13T12:38:36.485Z,95054.72
2018-12-13T12:41:03.145Z,95055.11
2018-12-13T12:43:29.804Z,95056.57
2018-12-13T12:45:56.145Z,95055.83
2018-12-13T12:48:22.543Z,95054.75
2018-12-13T12:50:48.896Z,95050.12
2018-12-13T12:53:15.256Z,95048.66
2018-12-13T12:55:42.718Z,95053.56
2018-12-13T12:58:09.051Z,95048.77
2018-12-13T13:00:35.519Z,95055.47
2018-12-13T13:03:04.217Z,95055.03
2018-12-13T13:05:30.778Z,95056.08
2018-12-13T13:07:57.901Z,95062.13
2018-12-13T13:10:23.809Z,95060.02
2018-12-13T13:12:50.172Z,95068.62
2018-12-13T13:15:16.560Z,95062.99
2018-12-13T13:17:42.925Z,95058.48
2018-12-13T13:20:09.327Z,95049.19
2018-12-13T13:22:35.756Z,95059.87
2018-12-13T13:25:02.193Z,95060.41
2018-12-13T13:27:28.542Z,95061.31
2018-12-13T13:29:54.932Z,95062.77
2018-12-13T13:32:21.307Z,95063.78
2018-12-13T13:34:47.774Z,95068.84
2018-12-13T13:37:14.064Z,95071.99
2018-12-13T13:39:41.404Z,95068.94
2018-12-13T13:42:07.736Z,95075.83
2018-12-13T13:44:34.168Z,95079.59
2018-12-13T13:47:00.604Z,95082.74
2018-12-13T13:49:29.447Z,95082.20
2018-12-13T13:51:55.800Z,95088.98
2018-12-13T13:54:22.184Z,95089.98
2018-12-13T13:56:48.589Z,95083.46
